createdAt,value
2019-04-28T00:01:31.142Z,8.87
2019-04-28T00:03:59.512Z,7.92
2019-04-28T00:06:27.787Z,10.30
2019-04-28T00:08:56.089Z,10.10
2019-04-28T00:11:24.402Z,10.28
2019-04-28T00:13:53.575Z,13.65
2019-04-28T00:16:22.876Z,14.53
2019-04-28T00:18:51.784Z,15.85
2019-04-28T00:21:36.848Z,15.83
2019-04-28T00:24:11.400Z,14.53
2019-04-28T00:26:47.512Z,13.85
2019-04-28T00:29:16.072Z,16.45
2019-04-28T00:31:44.481Z,15.60
2019-04-28T00:34:13.052Z,11.63
2019-04-28T00:36:43.111Z,11.53
2019-04-28T00:39:11.719Z,8.28
2019-04-28T00:41:42.038Z,7.05
2019-04-28T00:44:11.954Z,6.62
2019-04-28T00:46:41.707Z,8.48
2019-04-28T00:49:11.824Z,6.90
2019-04-28T00:51:41.529Z,6.50
2019-04-28T00:54:12.105Z,7.53
2019-04-28T00:56:42.106Z,6.75
2019-04-28T00:59:12.176Z,6.00
2019-04-28T01:01:44.809Z,5.97
2019-04-28T01:04:13.167Z,5.50
2019-04-28T01:06:43.029Z,5.78
2019-04-28T01:09:11.849Z,6.80
2019-04-28T01:11:41.450Z,6.33
2019-04-28T01:14:11.508Z,6.83
2019-04-28T01:16:49.619Z,8.05
2019-04-28T01:19:25.342Z,7.83
2019-04-28T01:22:07.169Z,9.18
2019-04-28T01:24:35.471Z,8.30
2019-04-28T01:27:05.401Z,9.08
2019-04-28T01:29:33.867Z,12.53
2019-04-28T01:32:06.981Z,12.93
2019-04-28T01:34:35.272Z,10.82
2019-04-28T01:37:04.659Z,11.73
2019-04-28T01:39:32.951Z,10.78
2019-04-28T01:42:01.571Z,10.10
2019-04-28T01:44:29.875Z,10.18
2019-04-28T01:47:00.964Z,9.60
2019-04-28T01:49:29.506Z,9.78
2019-04-28T01:52:00.495Z,8.93
2019-04-28T01:54:30.258Z,9.03
2019-04-28T01:57:01.034Z,9.73
2019-04-28T01:59:30.241Z,7.92
2019-04-28T02:02:00.092Z,9.05
2019-04-28T02:04:32.097Z,9.33
2019-04-28T02:06:59.864Z,9.45
2019-04-28T02:09:29.748Z,9.03
2019-04-28T02:12:00.782Z,8.53
2019-04-28T02:14:36.389Z,9.45
2019-04-28T02:17:07.863Z,8.60
2019-04-28T02:19:36.149Z,9.48
2019-04-28T02:22:12.048Z,8.60
2019-04-28T02:24:40.589Z,11.10
2019-04-28T02:27:10.629Z,11.85
2019-04-28T02:29:41.432Z,18.20
2019-04-28T02:32:15.041Z,16.37
2019-04-28T02:34:45.364Z,15.83
2019-04-28T02:37:13.661Z,16.05
2019-04-28T02:39:43.200Z,13.35
2019-04-28T02:42:11.577Z,11.93
2019-04-28T02:44:40.940Z,11.22
2019-04-28T02:47:10.767Z,9.73
2019-04-28T02:49:52.356Z,10.23
2019-04-28T02:52:31.082Z,9.65
2019-04-28T02:55:03.079Z,8.85
2019-04-28T02:57:33.948Z,10.35
2019-04-28T03:00:11.558Z,11.05
2019-04-28T03:02:41.355Z,10.85
2019-04-28T03:05:11.794Z,9.98
2019-04-28T03:07:41.082Z,9.65
2019-04-28T03:10:11.040Z,10.05
2019-04-28T03:12:41.469Z,12.68
2019-04-28T03:15:11.258Z,11.12
2019-04-28T03:17:40.754Z,11.45
2019-04-28T03:20:15.427Z,12.07
2019-04-28T03:22:52.537Z,12.58
2019-04-28T03:25:30.615Z,11.30
2019-04-28T03:28:16.365Z,10.30
2019-04-28T03:31:06.397Z,11.33
2019-04-28T03:33:34.207Z,12.23
2019-04-28T03:36:08.524Z,10.90
2019-04-28T03:38:35.882Z,11.40
2019-04-28T03:41:06.223Z,12.50
2019-04-28T03:43:34.576Z,14.53
2019-04-28T03:46:10.484Z,13.13
2019-04-28T03:51:05.742Z,15.08
2019-04-28T03:53:34.099Z,16.12
2019-04-28T03:56:03.433Z,19.57
2019-04-28T03:58:32.762Z,17.67
2019-04-28T04:01:03.216Z,17.95
2019-04-28T04:03:31.846Z,19.83
2019-04-28T04:06:00.915Z,18.52
2019-04-28T04:08:31.997Z,16.78
2019-04-28T04:11:14.037Z,19.50
2019-04-28T04:13:47.600Z,19.87
2019-04-28T04:16:24.071Z,21.37
2019-04-28T04:18:56.784Z,20.72
2019-04-28T04:21:25.070Z,21.27
2019-04-28T04:23:55.093Z,18.95
2019-04-28T04:26:25.489Z,22.05
2019-04-28T04:28:53.860Z,21.12
2019-04-28T04:31:22.148Z,19.63
2019-04-28T04:33:53.559Z,21.33
2019-04-28T04:36:24.188Z,20.64
2019-04-28T04:38:53.819Z,16.70
2019-04-28T04:41:22.503Z,18.02
2019-04-28T04:43:51.520Z,16.60
2019-04-28T04:46:22.381Z,15.72
2019-04-28T04:48:51.205Z,14.43
2019-04-28T04:51:21.272Z,13.88
2019-04-28T04:53:50.991Z,15.70
2019-04-28T04:56:21.165Z,16.30
2019-04-28T04:58:50.422Z,16.23
2019-04-28T05:01:27.728Z,14.70
2019-04-28T05:04:17.108Z,17.45
2019-04-28T05:06:45.398Z,15.70
2019-04-28T05:09:15.719Z,17.12
2019-04-28T05:11:44.288Z,14.03
2019-04-28T05:14:15.644Z,13.95
2019-04-28T05:16:43.938Z,14.23
2019-04-28T05:19:14.516Z,13.05
2019-04-28T05:21:44.153Z,11.93
2019-04-28T05:24:32.463Z,12.93
2019-04-28T05:27:06.627Z,11.85
2019-04-28T05:29:35.001Z,11.50
2019-04-28T05:32:03.744Z,12.33
2019-04-28T05:34:32.158Z,11.83
2019-04-28T05:37:01.480Z,12.82
2019-04-28T05:39:37.654Z,10.93
2019-04-28T05:44:40.602Z,10.50
2019-04-28T05:47:11.468Z,10.30
2019-04-28T05:49:41.402Z,11.30
2019-04-28T05:52:11.966Z,12.98
2019-04-28T05:54:49.630Z,11.63
2019-04-28T05:57:24.431Z,11.22
2019-04-28T06:00:03.594Z,11.10
2019-04-28T06:02:40.886Z,10.72
2019-04-28T06:05:10.166Z,11.33
2019-04-28T06:07:43.256Z,12.20
2019-04-28T06:10:13.637Z,10.80
2019-04-28T06:12:42.003Z,11.47
2019-04-28T06:15:12.016Z,10.65
2019-04-28T06:17:47.330Z,10.15
2019-04-28T06:20:16.613Z,11.12
2019-04-28T06:22:44.985Z,10.32
2019-04-28T06:25:13.337Z,10.40
2019-04-28T06:27:41.637Z,11.28
2019-04-28T06:30:09.921Z,10.53
2019-04-28T06:32:38.215Z,10.82
2019-04-28T06:35:07.944Z,11.22
2019-04-28T06:37:39.687Z,10.18
2019-04-28T06:40:08.046Z,10.93
2019-04-28T06:42:37.254Z,10.35
2019-04-28T06:45:06.397Z,10.00
2019-04-28T06:47:35.100Z,11.48
2019-04-28T06:50:05.911Z,10.13
2019-04-28T06:52:36.190Z,11.40
2019-04-28T06:55:06.317Z,11.10
2019-04-28T06:57:34.630Z,8.70
2019-04-28T07:00:03.825Z,10.75
2019-04-28T07:02:32.325Z,8.88
2019-04-28T07:05:02.069Z,8.53
2019-04-28T07:07:30.860Z,8.58
2019-04-28T07:09:59.753Z,8.80
2019-04-28T07:12:28.080Z,8.60
2019-04-28T07:15:05.508Z,9.10
2019-04-28T07:17:33.870Z,9.03
2019-04-28T07:20:06.788Z,8.87
2019-04-28T07:22:35.067Z,9.03
2019-04-28T07:25:03.524Z,8.45
2019-04-28T07:27:31.820Z,8.93
2019-04-28T07:30:01.026Z,9.50
2019-04-28T07:32:29.308Z,7.70
2019-04-28T07:35:04.468Z,7.95
2019-04-28T07:37:33.083Z,7.65
2019-04-28T07:40:01.642Z,8.00
2019-04-28T07:42:30.004Z,7.35
2019-04-28T07:44:59.545Z,8.05
2019-04-28T07:47:33.881Z,7.40
2019-04-28T07:50:03.502Z,8.38
2019-04-28T07:52:35.600Z,7.55
2019-04-28T07:55:11.294Z,8.60
2019-04-28T07:57:39.654Z,7.15
2019-04-28T08:00:08.088Z,7.22
2019-04-28T08:02:36.402Z,7.47
2019-04-28T08:05:06.136Z,7.17
2019-04-28T08:07:36.841Z,6.85
2019-04-28T08:10:05.414Z,7.35
2019-04-28T08:12:34.712Z,7.93
2019-04-28T08:15:03.412Z,7.53
2019-04-28T08:17:31.813Z,6.78
2019-04-28T08:20:02.083Z,8.48
2019-04-28T08:22:30.366Z,9.37
2019-04-28T08:24:58.660Z,7.83
2019-04-28T08:27:33.672Z,8.55
2019-04-28T08:30:02.253Z,7.22
2019-04-28T08:32:38.333Z,8.33
2019-04-28T08:35:06.947Z,6.90
2019-04-28T08:37:37.213Z,6.92
2019-04-28T08:40:05.504Z,7.60
2019-04-28T08:42:33.788Z,7.80
2019-04-28T08:45:02.168Z,7.30
2019-04-28T08:47:31.718Z,7.37
2019-04-28T08:50:03.189Z,7.17
2019-04-28T08:52:33.541Z,7.03
2019-04-28T08:55:01.843Z,6.92
2019-04-28T08:57:31.125Z,6.58
2019-04-28T09:00:01.577Z,6.55
2019-04-28T09:02:29.943Z,7.80
2019-04-28T09:05:04.769Z,6.75
2019-04-28T09:07:33.141Z,6.53
2019-04-28T09:10:01.440Z,8.75
2019-04-28T09:12:31.636Z,7.75
2019-04-28T09:14:59.921Z,7.28
2019-04-28T09:17:34.956Z,7.00
2019-04-28T09:20:04.053Z,6.35
2019-04-28T09:22:33.348Z,7.13
2019-04-28T09:25:01.718Z,7.72
2019-04-28T09:27:31.297Z,6.62
2019-04-28T09:29:59.673Z,6.35
2019-04-28T09:32:27.956Z,6.67
2019-04-28T09:34:56.256Z,7.45
2019-04-28T09:37:24.539Z,6.62
2019-04-28T09:39:54.472Z,7.67
2019-04-28T09:42:31.419Z,7.12
2019-04-28T09:45:01.925Z,7.67
2019-04-28T09:47:30.293Z,7.53
2019-04-28T09:50:00.560Z,7.47
2019-04-28T09:52:28.856Z,6.37
2019-04-28T09:54:58.137Z,6.92
2019-04-28T09:57:32.487Z,7.20
2019-04-28T10:00:00.769Z,8.27
2019-04-28T10:02:29.056Z,7.42
2019-04-28T10:04:57.618Z,8.20
2019-04-28T10:07:25.989Z,7.60
2019-04-28T10:09:54.348Z,8.70
2019-04-28T10:12:27.304Z,7.93
2019-04-28T10:14:55.359Z,7.53
2019-04-28T10:17:23.664Z,8.40
2019-04-28T10:19:52.215Z,6.95
2019-04-28T10:22:20.781Z,7.72
2019-04-28T10:24:49.075Z,7.08
2019-04-28T10:27:17.364Z,7.72
2019-04-28T10:29:46.599Z,6.87
2019-04-28T10:32:14.886Z,6.97
2019-04-28T10:34:54.318Z,7.08
2019-04-28T10:37:13.567Z,7.15
2019-04-28T10:39:52.276Z,7.70
2019-04-28T10:42:20.557Z,9.55
2019-04-28T10:44:54.791Z,7.17
2019-04-28T10:47:27.789Z,7.22
2019-04-28T10:50:01.895Z,6.70
2019-04-28T10:52:30.452Z,5.42
2019-04-28T10:54:59.679Z,6.25
2019-04-28T10:57:28.024Z,7.22
2019-04-28T14:14:37.751Z,5.08
2019-04-28T14:17:06.063Z,5.10
2019-04-28T14:19:36.328Z,6.45
2019-04-28T14:22:04.644Z,5.83
2019-04-28T14:24:33.950Z,5.83
2019-04-28T14:27:02.615Z,9.50
2019-04-28T14:29:31.078Z,6.28
2019-04-28T14:32:00.373Z,5.37
2019-04-28T14:34:28.721Z,4.72
2019-04-28T14:36:58.092Z,4.40
2019-04-28T14:39:27.347Z,4.45
2019-04-28T14:41:56.639Z,4.37
2019-04-28T14:44:25.009Z,5.28
2019-04-28T14:46:53.590Z,3.98
2019-04-28T14:49:24.211Z,4.13
2019-04-28T14:51:53.541Z,5.90
2019-04-28T14:54:21.850Z,5.12
2019-04-28T14:56:50.192Z,4.40
2019-04-28T14:59:18.502Z,4.45
2019-04-28T15:02:04.109Z,3.58
2019-04-28T15:04:49.164Z,3.03
2019-04-28T15:07:38.386Z,2.60
2019-04-28T15:10:14.154Z,2.33
2019-04-28T15:12:42.513Z,2.83
2019-04-28T15:15:10.892Z,2.62
2019-04-28T15:17:39.247Z,2.50
2019-04-28T15:20:08.580Z,2.65
2019-04-28T15:22:37.792Z,2.40
2019-04-28T15:25:07.081Z,2.65
2019-04-28T15:27:35.452Z,2.70
2019-04-28T15:30:04.580Z,2.50
2019-04-28T15:32:33.856Z,2.80
2019-04-28T15:35:02.140Z,2.70
2019-04-28T15:37:30.432Z,3.15
2019-04-28T15:39:58.720Z,3.30
2019-04-28T15:42:27.291Z,2.90
2019-04-28T15:44:55.643Z,3.77
2019-04-28T15:47:23.948Z,3.62
2019-04-28T15:49:52.244Z,3.90
2019-04-28T15:52:20.881Z,4.47
2019-04-28T15:54:49.253Z,4.10
2019-04-28T15:57:19.412Z,4.95
2019-04-28T15:59:47.729Z,4.20
2019-04-28T16:02:16.984Z,4.28
2019-04-28T16:04:47.467Z,5.00
2019-04-28T16:07:25.439Z,4.58
2019-04-28T16:09:53.844Z,6.58
2019-04-28T16:12:23.073Z,4.50
2019-04-28T16:14:51.643Z,4.12
2019-04-28T16:17:21.992Z,4.60
2019-04-28T16:19:52.728Z,4.62
2019-04-28T16:22:24.376Z,4.22
2019-04-28T16:24:52.664Z,4.40
2019-04-28T16:27:21.942Z,4.83
2019-04-28T16:29:51.752Z,4.03
2019-04-28T16:32:21.989Z,4.45
2019-04-28T16:34:50.676Z,4.37
2019-04-28T16:37:19.989Z,4.83
2019-04-28T16:39:48.960Z,3.95
2019-04-28T16:42:17.851Z,4.55
2019-04-28T16:44:48.490Z,4.40
2019-04-28T16:47:16.852Z,4.35
2019-04-28T16:49:45.132Z,5.10
2019-04-28T16:52:13.693Z,4.75
2019-04-28T16:54:46.356Z,5.33
2019-04-28T16:57:28.466Z,4.83
2019-04-28T17:00:04.641Z,5.20
2019-04-28T17:02:35.341Z,5.67
2019-04-28T17:05:03.772Z,4.60
2019-04-28T17:07:32.065Z,4.60
2019-04-28T17:10:00.638Z,4.70
2019-04-28T17:12:37.057Z,5.17
2019-04-28T17:15:07.020Z,5.97
2019-04-28T17:17:35.328Z,6.00
2019-04-28T17:20:06.008Z,5.65
2019-04-28T17:22:35.301Z,5.70
2019-04-28T17:25:04.453Z,5.45
2019-04-28T17:27:32.808Z,4.95
2019-04-28T17:30:02.028Z,6.22
2019-04-28T17:32:30.381Z,5.65
2019-04-28T17:35:00.061Z,5.10
2019-04-28T17:37:29.284Z,5.08
2019-04-28T17:39:57.845Z,4.67
2019-04-28T17:42:28.211Z,4.60
2019-04-28T17:44:56.806Z,4.35
2019-04-28T17:47:25.334Z,4.50
2019-04-28T17:49:54.839Z,4.17
2019-04-28T17:52:23.605Z,4.03
2019-04-28T17:54:54.408Z,3.86
2019-04-28T17:57:22.732Z,3.67
2019-04-28T17:59:52.692Z,4.20
2019-04-28T18:02:39.436Z,3.58
2019-04-28T18:05:09.638Z,3.87
2019-04-28T18:07:38.670Z,3.40
2019-04-28T18:10:09.108Z,3.75
2019-04-28T18:12:37.473Z,3.60
2019-04-28T18:15:11.765Z,3.55
2019-04-28T18:17:46.836Z,3.75
2019-04-28T18:20:15.120Z,3.53
2019-04-28T18:27:28.302Z,3.90
2019-04-28T18:32:27.258Z,3.85
2019-04-28T18:37:39.081Z,3.83
2019-04-28T18:42:41.616Z,4.27
2019-04-28T18:47:36.107Z,4.87
2019-04-28T18:52:29.756Z,5.45
2019-04-28T18:57:23.232Z,3.60
2019-04-28T19:02:27.253Z,5.33
2019-04-28T19:07:22.370Z,4.83
2019-04-28T19:12:17.565Z,4.80
2019-04-28T19:17:18.157Z,4.43
2019-04-28T19:22:14.320Z,3.98
2019-04-28T19:27:07.910Z,4.33
2019-04-28T19:32:01.458Z,4.75
2019-04-28T20:19:00.782Z,5.40
2019-04-28T20:23:54.329Z,5.47
2019-04-28T20:28:47.812Z,5.83
2019-04-28T20:33:41.473Z,6.50
2019-04-28T20:38:41.348Z,7.33
2019-04-28T20:43:34.907Z,7.92
2019-04-28T20:48:28.489Z,8.45
2019-04-28T20:53:22.040Z,8.40
2019-04-28T20:58:15.535Z,8.30
2019-04-28T21:03:10.000Z,9.13
2019-04-28T21:08:03.752Z,8.90
2019-04-28T21:13:03.445Z,9.33
2019-04-28T21:17:57.236Z,9.20
2019-04-28T21:22:50.709Z,8.80
2019-04-28T21:27:44.236Z,10.78
2019-04-28T21:32:43.808Z,10.15
2019-04-28T21:37:37.628Z,9.58
2019-04-28T21:42:49.051Z,10.30
2019-04-28T21:47:43.552Z,10.77
2019-04-28T21:52:37.031Z,10.07
2019-04-28T21:57:35.693Z,11.05
2019-04-28T22:02:32.472Z,9.98
2019-04-28T22:07:27.880Z,10.03
2019-04-28T22:12:21.359Z,10.80
2019-04-28T22:17:15.104Z,11.12
2019-04-28T22:22:09.531Z,11.00
2019-04-28T22:27:03.087Z,11.05
2019-04-28T22:31:56.632Z,8.65
2019-04-28T22:36:50.119Z,9.45
2019-04-28T22:41:49.637Z,8.90
2019-04-28T22:46:49.141Z,9.43
2019-04-28T22:51:42.620Z,8.95
2019-04-28T22:56:37.756Z,10.05
2019-04-28T23:01:39.747Z,9.20
2019-04-28T23:06:34.328Z,9.33
2019-04-28T23:11:27.876Z,8.15
2019-04-28T23:16:21.588Z,8.75
2019-04-28T23:21:32.955Z,8.80
2019-04-28T23:26:26.564Z,9.93
2019-04-28T23:31:20.508Z,8.45
2019-04-28T23:36:14.136Z,8.90
2019-04-28T23:41:12.466Z,8.88
2019-04-28T23:46:07.981Z,9.00
2019-04-28T23:51:03.171Z,7.80
2019-04-28T23:55:56.639Z,8.43
